• Join FlightAware (Why Join?)
  • Login
  • US Flag 
12:47PM EDT


 

Airport Tracker/Info


-or-


 

Live Flight TrackerFlight Track Log ✈ AFR129 ✈ 13-May-2013 ✈ ZBAA / PEK - LFPG / CDG

Flight Track Log - Related Links

Times and Time Zones

All times are in EDT time to prevent confusion due to time zone crossing. See the AFR129 flight status page for this flight to view local times or setup timezone preferences in your user account.

Time Position Orientation Groundspeed Altitude Reporting Facility
EDT Latitude Longitude Course Direction KTS MPH feet Rate Location/Type
09:47PM 40.5211 116.1200 321° Northwest  Level Estimated
09:48PM 40.6090 116.0264 321° Northwest  Level Estimated
09:49PM 40.6969 115.9325 321° Northwest  Level Estimated
09:50PM 40.7847 115.8384 321° Northwest  Level Estimated
09:51PM 40.8725 115.7440 321° Northwest  Level Estimated
09:52PM 40.9601 115.6494 321° Northwest  Level Estimated
09:53PM 41.0477 115.5545 321° Northwest  Level Estimated
09:54PM 41.1352 115.4593 321° Northwest  Level Estimated
09:55PM 41.2226 115.3639 321° Northwest  Level Estimated
09:56PM 41.3100 115.2683 321° Northwest  Level Estimated
09:57PM 41.3973 115.1724 321° Northwest  Level Estimated
09:58PM 41.4845 115.0762 320° Northwest  Level Estimated
09:59PM 41.5716 114.9798 320° Northwest  Level Estimated
10:00PM 41.6586 114.8831 320° Northwest  Level Estimated
10:01PM 41.7455 114.7862 320° Northwest  Level Estimated
10:02PM 41.8324 114.6890 320° Northwest  Level Estimated
10:03PM 41.9192 114.5915 320° Northwest  Level Estimated
10:04PM 42.0059 114.4938 320° Northwest  Level Estimated
10:05PM 42.0925 114.3958 320° Northwest  Level Estimated
10:06PM 42.1790 114.2975 320° Northwest  Level Estimated
10:07PM 42.2655 114.1990 320° Northwest  Level Estimated
10:08PM 42.3518 114.1001 320° Northwest  Level Estimated
10:09PM 42.4381 114.0011 320° Northwest  Level Estimated
10:10PM 42.5243 113.9017 320° Northwest  Level Estimated
10:11PM 42.6104 113.8021 320° Northwest  Level Estimated
10:12PM 42.6964 113.7022 320° Northwest  Level Estimated
10:13PM 42.7824 113.6020 319° Northwest  Level Estimated
10:14PM 42.8682 113.5015 319° Northwest  Level Estimated
10:15PM 42.9540 113.4008 319° Northwest  Level Estimated
10:16PM 43.0397 113.2998 319° Northwest  Level Estimated
10:17PM 43.1252 113.1985 319° Northwest  Level Estimated
10:18PM 43.2107 113.0969 319° Northwest  Level Estimated
10:19PM 43.2961 112.9950 319° Northwest  Level Estimated
10:20PM 43.3814 112.8929 319° Northwest  Level Estimated
10:21PM 43.4667 112.7904 319° Northwest  Level Estimated
10:22PM 43.5518 112.6877 319° Northwest  Level Estimated
10:23PM 43.6368 112.5846 319° Northwest  Level Estimated
10:24PM 43.7218 112.4813 319° Northwest  Level Estimated
10:25PM 43.8066 112.3777 319° Northwest  Level Estimated
10:26PM 43.8914 112.2738 319° Northwest  Level Estimated
10:27PM 43.9760 112.1696 318° Northwest  Level Estimated
10:28PM 44.0606 112.0651 318° Northwest  Level Estimated
10:29PM 44.1451 111.9603 318° Northwest  Level Estimated
10:30PM 44.2294 111.8552 318° Northwest  Level Estimated
10:31PM 44.3137 111.7498 318° Northwest  Level Estimated
10:32PM 44.3979 111.6441 318° Northwest  Level Estimated
10:33PM 44.4820 111.5381 318° Northwest  Level Estimated
10:34PM 44.5659 111.4318 318° Northwest  Level Estimated
10:35PM 44.6498 111.3252 318° Northwest  Level Estimated
10:36PM 44.7336 111.2182 318° Northwest  Level Estimated
10:37PM 44.8173 111.1110 318° Northwest  Level Estimated
10:38PM 44.9009 111.0035 318° Northwest  Level Estimated
10:39PM 44.9844 110.8956 318° Northwest  Level Estimated
10:40PM 45.0678 110.7874 318° Northwest  Level Estimated
10:41PM 45.1510 110.6789 317° Northwest  Level Estimated
10:42PM 45.2342 110.5701 317° Northwest  Level Estimated
10:43PM 45.3173 110.4610 317° Northwest  Level Estimated
10:44PM 45.4003 110.3515 317° Northwest  Level Estimated
10:45PM 45.4831 110.2418 317° Northwest  Level Estimated
10:46PM 45.5659 110.1317 317° Northwest  Level Estimated
10:47PM 45.6477 110.0224 317° Northwest  Level Estimated
10:48PM 45.7293 109.9129 317° Northwest  Level Estimated
10:49PM 45.8109 109.8030 317° Northwest  Level Estimated
10:50PM 45.8923 109.6928 317° Northwest  Level Estimated
10:51PM 45.9737 109.5823 317° Northwest  Level Estimated
10:52PM 46.0549 109.4714 317° Northwest  Level Estimated
10:53PM 46.1361 109.3602 317° Northwest  Level Estimated
10:54PM 46.2171 109.2487 316° Northwest  Level Estimated
10:55PM 46.2980 109.1369 316° Northwest  Level Estimated
10:56PM 46.3788 109.0247 316° Northwest  Level Estimated
10:57PM 46.4595 108.9122 316° Northwest  Level Estimated
10:58PM 46.5401 108.7994 316° Northwest  Level Estimated
10:59PM 46.6206 108.6862 316° Northwest  Level Estimated
11:00PM 46.7010 108.5727 316° Northwest  Level Estimated
11:01PM 46.7812 108.4589 316° Northwest  Level Estimated
11:02PM 46.8614 108.3447 316° Northwest  Level Estimated
11:03PM 46.9414 108.2302 316° Northwest  Level Estimated
11:04PM 47.0213 108.1153 316° Northwest  Level Estimated
11:05PM 47.1011 108.0001 316° Northwest  Level Estimated
11:06PM 47.1808 107.8845 315° West  Level Estimated
11:07PM 47.2604 107.7686 315° West  Level Estimated
11:08PM 47.3398 107.6524 315° West  Level Estimated
11:09PM 47.4192 107.5358 315° West  Level Estimated
11:10PM 47.4984 107.4188 315° West  Level Estimated
11:11PM 47.5774 107.3015 315° West  Level Estimated
11:12PM 47.6564 107.1839 315° West  Level Estimated
11:13PM 47.7353 107.0658 315° West  Level Estimated
11:14PM 47.8140 106.9475 315° West  Level Estimated
11:15PM 47.8926 106.8287 315° West  Level Estimated
11:16PM 47.9711 106.7096 315° West  Level Estimated
11:17PM 48.0495 106.5902 314° West  Level Estimated
11:18PM 48.1277 106.4703 314° West  Level Estimated
11:19PM 48.2058 106.3502 314° West  Level Estimated
11:20PM 48.2838 106.2296 314° West  Level Estimated
11:21PM 48.3617 106.1087 314° West  Level Estimated
11:22PM 48.4394 105.9874 314° West  Level Estimated
11:23PM 48.5170 105.8657 314° West  Level Estimated
11:24PM 48.5945 105.7437 314° West  Level Estimated
11:25PM 48.6718 105.6213 314° West  Level Estimated
11:26PM 48.7491 105.4985 314° West  Level Estimated
11:27PM 48.8261 105.3753 314° West  Level Estimated
11:28PM 48.9031 105.2518 313° West  Level Estimated
11:29PM 48.9799 105.1279 313° West  Level Estimated
11:30PM 49.0566 105.0035 313° West  Level Estimated
11:31PM 49.1332 104.8789 313° West  Level Estimated
11:32PM 49.2096 104.7538 313° West  Level Estimated
11:33PM 49.2859 104.6283 313° West  Level Estimated
11:34PM 49.3620 104.5025 313° West  Level Estimated
11:35PM 49.4380 104.3762 313° West  Level Estimated
11:36PM 49.5139 104.2496 313° West  Level Estimated
11:37PM 49.5897 104.1226 313° West  Level Estimated
11:38PM 49.6653 103.9951 313° West  Level Estimated
11:39PM 49.7407 103.8673 312° West  Level Estimated
11:40PM 49.8160 103.7391 312° West  Level Estimated
11:41PM 49.8912 103.6105 312° West  Level Estimated
11:42PM 49.9662 103.4815 312° West  Level Estimated
11:43PM 50.0411 103.3521 312° West  Level Estimated
11:44PM 50.1159 103.2222 312° West  Level Estimated
11:45PM 50.1905 103.0920 312° West  Level Estimated
11:46PM 50.2649 102.9614 312° West  Level Estimated
11:47PM 50.3390 102.8307 312° West  Level Estimated
11:48PM 50.4129 102.6997 312° West  Level Estimated
11:49PM 50.4867 102.5682 311° West  Level Estimated
11:50PM 50.5604 102.4363 311° West  Level Estimated
11:51PM 50.6339 102.3040 311° West  Level Estimated
11:52PM 50.7072 102.1713 311° West  Level Estimated
11:53PM 50.7804 102.0382 311° West  Level Estimated
11:54PM 50.8534 101.9047 311° West  Level Estimated
11:55PM 50.9263 101.7707 311° West  Level Estimated
11:56PM 50.9990 101.6364 311° West  Level Estimated
11:57PM 51.0716 101.5016 311° West  Level Estimated
11:58PM 51.1440 101.3664 311° West  Level Estimated
11:59PM 51.2163 101.2307 310° West  Level Estimated
12:00AM 51.2884 101.0947 310° West  Level Estimated
12:01AM 51.3603 100.9582 310° West  Level Estimated
12:02AM 51.4321 100.8213 310° West  Level Estimated
12:03AM 51.5037 100.6839 310° West  Level Estimated
12:04AM 51.5752 100.5461 310° West  Level Estimated
12:05AM 51.6465 100.4079 310° West  Level Estimated
12:06AM 51.7177 100.2692 310° West  Level Estimated
12:07AM 51.7886 100.1302 310° West  Level Estimated
12:08AM 51.8594 99.9906 309° West  Level Estimated
12:09AM 51.9301 99.8507 309° West  Level Estimated
12:10AM 52.0006 99.7103 309° West  Level Estimated
12:11AM 52.0709 99.5694 309° West  Level Estimated
12:12AM 52.1410 99.4281 309° West  Level Estimated
12:13AM 52.2110 99.2864 309° West  Level Estimated
12:14AM 52.2808 99.1442 309° West  Level Estimated
12:15AM 52.3504 99.0015 309° West  Level Estimated
12:16AM 52.4199 98.8585 309° West  Level Estimated
12:17AM 52.4892 98.7149 308° West  Level Estimated
12:18AM 52.5583 98.5710 308° West  Level Estimated
12:19AM 52.6273 98.4265 308° West  Level Estimated
12:20AM 52.6960 98.2816 308° West  Level Estimated
12:21AM 52.7646 98.1363 308° West  Level Estimated
12:22AM 52.8330 97.9904 308° West  Level Estimated
12:23AM 52.9012 97.8442 308° West  Level Estimated
12:24AM 52.9693 97.6974 308° West  Level Estimated
12:25AM 53.0372 97.5503 308° West  Level Estimated
12:26AM 53.1049 97.4026 307° West  Level Estimated
12:27AM 53.1724 97.2545 307° West  Level Estimated
12:28AM 53.2397 97.1059 307° West  Level Estimated
12:29AM 53.3068 96.9568 307° West  Level Estimated
12:30AM 53.3737 96.8073 307° West  Level Estimated
12:31AM 53.4405 96.6573 307° West  Level Estimated
12:32AM 53.5071 96.5069 307° West  Level Estimated
12:33AM 53.5735 96.3559 307° West  Level Estimated
12:34AM 53.6396 96.2045 306° West  Level Estimated
12:35AM 53.7057 96.0526 306° West  Level Estimated
12:36AM 53.7715 95.9003 306° West  Level Estimated
12:37AM 53.8371 95.7474 306° West  Level Estimated
12:38AM 53.9025 95.5941 306° West  Level Estimated
12:39AM 53.9677 95.4403 306° West  Level Estimated
12:40AM 54.0327 95.2860 306° West  Level Estimated
12:41AM 54.0976 95.1313 306° West  Level Estimated
12:42AM 54.1622 94.9760 305° West  Level Estimated
12:43AM 54.2266 94.8203 305° West  Level Estimated
12:44AM 54.2908 94.6641 305° West  Level Estimated
12:45AM 54.3549 94.5074 305° West  Level Estimated
12:46AM 54.4187 94.3502 305° West  Level Estimated
12:47AM 54.4823 94.1925 305° West  Level Estimated
12:48AM 54.5457 94.0343 305° West  Level Estimated
12:49AM 54.6089 93.8756 305° West  Level Estimated
12:50AM 54.6719 93.7165 304° West  Level Estimated
12:51AM 54.7347 93.5568 304° West  Level Estimated
12:52AM 54.7972 93.3967 304° West  Level Estimated
12:53AM 54.8596 93.2361 304° West  Level Estimated
12:54AM 54.9217 93.0749 304° West  Level Estimated
12:55AM 54.9837 92.9133 304° West  Level Estimated
12:56AM 55.0454 92.7511 304° West  Level Estimated
12:57AM 55.1069 92.5885 304° West  Level Estimated
12:58AM 55.1682 92.4253 303° West  Level Estimated
12:59AM 55.2293 92.2617 303° West  Level Estimated
01:00AM 55.2901 92.0976 303° West  Level Estimated
01:01AM 55.3507 91.9329 303° West  Level Estimated
01:02AM 55.4112 91.7678 303° West  Level Estimated
01:03AM 55.4713 91.6021 303° West  Level Estimated
01:04AM 55.5313 91.4360 303° West  Level Estimated
01:05AM 55.5910 91.2693 302° West  Level Estimated
01:06AM 55.6505 91.1021 302° West  Level Estimated
01:07AM 55.7098 90.9345 302° West  Level Estimated
01:08AM 55.7689 90.7663 302° West  Level Estimated
01:09AM 55.8277 90.5976 302° West  Level Estimated
01:10AM 55.8863 90.4284 302° West  Level Estimated
01:11AM 55.9446 90.2586 302° West  Level Estimated
01:12AM 56.0028 90.0884 301° West  Level Estimated
01:13AM 56.0606 89.9177 301° West  Level Estimated
01:14AM 56.1183 89.7464 301° West  Level Estimated
01:15AM 56.1757 89.5747 301° West  Level Estimated
01:16AM 56.2329 89.4024 301° West  Level Estimated
01:17AM 56.2898 89.2296 301° West  Level Estimated
01:18AM 56.3465 89.0563 301° West  Level Estimated
01:19AM 56.4030 88.8824 300° West  Level Estimated
01:20AM 56.4592 88.7081 300° West  Level Estimated
01:21AM 56.5151 88.5333 300° West  Level Estimated
01:22AM 56.5708 88.3579 300° West  Level Estimated
01:23AM 56.6263 88.1820 300° West  Level Estimated
01:24AM 56.6815 88.0056 300° West  Level Estimated
01:25AM 56.7365 87.8287 300° West  Level Estimated
01:26AM 56.7912 87.6512 299° West  Level Estimated
01:27AM 56.8457 87.4733 299° West  Level Estimated
01:28AM 56.8999 87.2948 299° West  Level Estimated
01:29AM 56.9538 87.1158 299° West  Level Estimated
01:29AM 55.0830 93.5430 299° West 473 544 32,000  Level FlightAware
01:30AM 57.0075 86.9363 299° West  Level Estimated
01:30AM 55.1560 93.2870 297° West 474 545 32,000  Level FlightAware
01:30AM 55.1940 93.1540 297° West 473 544 32,000  Level FlightAware
01:31AM 55.2380 92.9960 296° West 475 547 32,000  Level FlightAware
01:32AM 55.2750 92.8630 296° West 475 547 32,000  Level FlightAware
01:33AM 55.3150 92.7190 296° West 476 548 32,000  Level FlightAware
01:33AM 55.3580 92.5630 296° West 477 549 32,000  Level FlightAware
01:34AM 55.4010 92.4050 296° West 480 552 32,000  Level FlightAware
01:35AM 55.4400 92.2700 297° West 484 557 32,000  Level FlightAware
01:35AM 55.4860 92.1080 297° West 484 557 32,000  Level FlightAware
01:36AM 55.5160 92.0020 297° West 485 558 32,000  Level FlightAware
01:37AM 55.5650 91.8250 296° West 486 559 32,000  Level FlightAware
01:38AM 55.6200 91.6270 296° West 489 563 32,000  Level FlightAware
01:38AM 55.6590 91.4860 296° West 490 564 32,000  Level FlightAware
01:39AM 55.7150 91.2790 296° West 492 566 32,000  Level FlightAware
01:40AM 55.7720 91.0680 296° West 492 566 32,000  Level FlightAware
01:41AM 55.8210 90.8900 296° West 492 566 32,000  Level FlightAware
01:42AM 55.8690 90.7120 296° West 492 566 32,000  Level FlightAware
01:43AM 55.9050 90.5780 296° West 492 566 32,000  Level FlightAware
01:44AM 55.9660 90.3550 296° West 492 566 32,000  Level FlightAware
01:44AM 56.0000 90.2040 292° West 495 570 32,000  Level FlightAware
01:45AM 56.0400 90.0500 295° West 495 570 32,000  Level FlightAware
01:46AM 56.0780 89.9040 295° West 496 571 32,000  Level FlightAware
01:46AM 56.1200 89.7350 294° West 495 570 32,000  Level FlightAware
01:47AM 56.1580 89.5860 295° West 494 568 32,000  Level FlightAware
01:48AM 56.1950 89.4390 294° West 492 566 32,000  Level FlightAware
01:48AM 56.2350 89.2800 294° West 497 572 32,000  Level FlightAware
01:49AM 56.2740 89.1240 294° West 497 572 32,000  Level FlightAware
01:50AM 56.3150 88.9550 294° West 496 571 32,000  Level FlightAware
01:51AM 56.3510 88.8010 293° West 491 565 32,000  Level FlightAware
01:51AM 56.3860 88.6280 290° West 490 564 32,000  Level FlightAware
01:52AM 56.4180 88.4760 291° West 492 566 32,000  Level FlightAware
01:53AM 56.4500 88.3230 291° West 493 567 32,000  Level FlightAware
01:53AM 56.4860 88.1490 291° West 492 566 32,000  Level FlightAware
01:54AM 56.5180 87.9960 291° West 493 567 32,000  Level FlightAware
01:55AM 56.5530 87.8240 290° West 494 568 32,000  Level FlightAware
01:55AM 56.5840 87.6700 290° West 497 572 32,000  Level FlightAware
01:56AM 56.6160 87.5110 290° West 496 571 32,000  Level FlightAware
01:57AM 56.6500 87.3390 290° West 495 570 32,000  Level FlightAware
01:58AM 56.6790 87.1950 290° West 495 570 32,000  Level FlightAware
01:58AM 56.7150 87.0120 290° West 494 568 32,000  Level FlightAware
01:59AM 56.7460 86.8510 289° West 494 568 32,000  Level FlightAware
02:00AM 56.7760 86.6940 289° West 493 567 32,000  Level FlightAware
02:00AM 56.8100 86.5160 289° West 493 567 32,000  Level FlightAware
02:01AM 56.8390 86.3590 289° West 493 567 32,000  Level FlightAware
02:02AM 56.8720 86.1840 289° West 495 570 32,000  Level FlightAware
02:02AM 56.9020 86.0250 289° West 496 571 32,000  Level FlightAware
02:03AM 56.9290 85.8780 289° West 495 570 32,000  Level FlightAware
02:04AM 56.9640 85.6890 289° West 495 570 32,000  Level FlightAware
02:05AM 56.9920 85.5330 288° West 495 570 32,000  Level FlightAware
02:05AM 57.0240 85.3510 288° West 493 567 32,000  Level FlightAware
02:06AM 57.0520 85.1980 289° West 493 567 32,000  Level FlightAware
02:07AM 57.0800 85.0350 288° West 493 567 32,000  Level FlightAware
02:07AM 57.1110 84.8570 288° West 494 568 32,000  Level FlightAware
02:08AM 57.1540 84.7130 299° West 496 571 32,000  Level FlightAware
02:09AM 57.2250 84.6010 320° Northwest 496 571 32,000  Level FlightAware
02:09AM 57.3060 84.4830 322° Northwest 497 572 32,000  Level FlightAware
02:10AM 57.3870 84.3650 322° Northwest 497 572 32,000  Level FlightAware
02:11AM 57.4580 84.2610 322° Northwest 497 572 32,000  Level FlightAware
02:12AM 57.5330 84.1480 321° Northwest 496 571 32,000  Level FlightAware
02:12AM 57.6090 84.0360 322° Northwest 496 571 32,000  Level FlightAware
02:13AM 57.6810 83.9270 321° Northwest 496 571 32,000  Level FlightAware
02:14AM 57.7600 83.8080 321° Northwest 496 571 32,000  Level FlightAware
02:14AM 57.8320 83.6990 321° Northwest 496 571 32,000  Level FlightAware
02:15AM 57.9110 83.5780 321° Northwest 495 570 32,000  Level FlightAware
02:16AM 57.9750 83.4800 321° Northwest 493 567 32,000  Level FlightAware
02:16AM 58.0460 83.3720 321° Northwest 492 566 32,000  Level FlightAware
02:19AM 58.1483 82.9653 296° West  Level Estimated
02:20AM 58.1959 82.7739 295° West  Level Estimated
02:20AM 58.4390 82.7110 295° West 490 564 32,000  Level FlightAware
02:21AM 58.5060 82.5770 314° West 490 564 32,000  Level FlightAware
02:22AM 58.5700 82.4460 313° West 490 564 32,000  Level FlightAware
02:22AM 58.6400 82.3050 314° West 490 564 32,000  Level FlightAware
02:23AM 58.6930 82.1970 313° West 490 564 32,000  Level FlightAware
02:24AM 58.7710 82.0380 313° West 491 565 32,000  Level FlightAware
02:25AM 58.8280 81.9200 313° West 492 566 32,000  Level FlightAware
02:25AM 58.9100 81.7500 313° West 494 568 32,000  Level FlightAware
02:26AM 58.9860 81.5910 313° West 498 573 32,000  Level FlightAware
02:27AM 59.0500 81.4560 313° West 499 574 32,000  Level FlightAware
02:28AM 59.1010 81.3500 313° West 498 573 32,000  Level FlightAware
02:28AM 59.1800 81.1810 312° West 492 566 32,000  Level FlightAware
02:29AM 59.2340 81.0660 313° West 490 564 32,000  Level FlightAware
02:30AM 59.2940 80.9360 312° West 489 563 32,000  Level FlightAware
02:30AM 59.3590 80.7960 312° West 487 560 32,000  Level FlightAware
02:31AM 59.4210 80.6590 312° West 487 560 32,000  Level FlightAware
02:32AM 59.4730 80.5470 312° West 487 560 32,000  Level FlightAware
02:32AM 59.5240 80.4350 312° West 487 560 32,000  Level FlightAware
02:33AM 59.5750 80.3230 312° West 487 560 32,000  Level FlightAware
02:34AM 59.6390 80.1820 312° West 487 560 32,000  Level FlightAware
02:35AM 59.6900 80.0690 312° West 487 560 32,000  Level FlightAware
02:35AM 59.7420 79.9560 312° West 487 560 32,000  Level FlightAware
02:36AM 59.7930 79.8430 312° West 487 560 32,000  Level FlightAware
02:37AM 59.8570 79.7020 312° West 487 560 32,000  Level FlightAware
02:37AM 59.9080 79.5880 312° West 487 560 32,000  Level FlightAware
02:38AM 59.9600 79.4740 312° West 487 560 32,000  Level FlightAware
02:39AM 60.0110 79.3610 312° West 487 560 32,000  Level FlightAware
02:39AM 60.0620 79.2470 312° West 487 560 32,000  Level FlightAware
02:40AM 60.1260 79.1040 312° West 487 560 32,000  Level FlightAware
02:43AM 60.2167 78.6213 291° West  Level Estimated
02:44AM 60.2556 78.4107 290° West  Level Estimated
02:45AM 60.2942 78.1995 290° West  Level Estimated
02:46AM 60.3324 77.9878 290° West  Level Estimated
02:46AM 60.7160 77.6220 290° West 476 548 32,000  Level FlightAware
02:47AM 60.7510 77.4610 294° West 479 551 32,000  Level FlightAware
02:47AM 60.7850 77.2830 291° West 478 550 32,000  Level FlightAware
02:48AM 60.8330 77.0380 292° West 474 545 32,000  Level FlightAware
02:49AM 60.8650 76.8740 292° West 472 543 32,000  Level FlightAware
02:50AM 60.8940 76.7240 292° West 474 545 32,000  Level FlightAware
02:50AM 60.9320 76.5300 292° West 473 544 32,000  Level FlightAware
02:51AM 60.9760 76.3470 296° West 471 542 32,000  Level FlightAware
02:52AM 61.0140 76.2020 298° West 472 543 32,000  Level FlightAware
02:53AM 61.0620 76.0210 299° West 472 543 32,000  Level FlightAware
02:53AM 61.0930 75.8990 298° West 472 543 32,000  Level FlightAware
02:54AM 61.1360 75.7290 298° West 472 543 32,000  Level FlightAware
02:55AM 61.1710 75.5930 298° West 472 543 32,000  Level FlightAware
02:55AM 61.2060 75.4570 298° West 472 543 32,000  Level FlightAware
02:56AM 61.2410 75.3210 298° West 472 543 32,000  Level FlightAware
02:57AM 61.2760 75.1840 298° West 472 543 32,000  Level FlightAware
02:57AM 61.3190 75.0140 298° West 472 543 32,000  Level FlightAware
02:58AM 61.3540 74.8770 298° West 472 543 32,000  Level FlightAware
02:59AM 61.3890 74.7400 298° West 472 543 32,000  Level FlightAware
02:59AM 61.4240 74.6030 298° West 472 543 32,000  Level FlightAware
03:00AM 61.4590 74.4660 298° West 472 543 32,000  Level FlightAware
03:01AM 61.5020 74.2940 298° West 472 543 32,000  Level FlightAware
03:02AM 61.5370 74.1570 298° West 472 543 32,000  Level FlightAware
03:02AM 61.5720 74.0190 298° West 472 543 32,000  Level FlightAware
03:05AM 61.6385 73.5180 286° West  Level Estimated
03:06AM 61.6678 73.2913 285° West  Level Estimated
03:07AM 61.6968 73.0641 285° West  Level Estimated
03:08AM 61.7255 72.8365 285° West  Level Estimated
03:09AM 61.7537 72.6085 285° West  Level Estimated
03:10AM 61.7816 72.3801 285° West  Level Estimated
03:11AM 61.8091 72.1513 284° West  Level Estimated
03:12AM 61.8362 71.9221 284° West  Level Estimated
03:13AM 61.8629 71.6924 284° West  Level Estimated
03:14AM 61.8893 71.4624 284° West  Level Estimated
03:15AM 61.9152 71.2320 284° West  Level Estimated
03:15AM 62.0570 70.4260 284° West 464 534 32,000  Level FlightAware
03:16AM 62.0770 70.2410 283° West 463 533 32,000  Level FlightAware
03:16AM 62.0980 70.0530 284° West 462 532 32,000  Level FlightAware
03:17AM 62.1170 69.8710 283° West 464 534 32,000  Level FlightAware
03:18AM 62.1350 69.7060 283° West 464 534 32,000  Level FlightAware
03:18AM 62.1570 69.4950 283° West 463 533 32,000  Level FlightAware
03:19AM 62.1760 69.3050 282° West 461 531 32,000  Level FlightAware
03:20AM 62.1950 69.1130 282° West 460 529 32,000  Level FlightAware
03:21AM 62.2140 68.9300 283° West 462 532 32,000  Level FlightAware
03:21AM 62.2280 68.7780 281° West 463 533 32,000  Level FlightAware
03:22AM 62.2490 68.5650 282° West 461 531 32,000  Level FlightAware
03:23AM 62.2630 68.4180 282° West 460 529 32,000  Level FlightAware
03:23AM 62.2710 68.3460 283° West 460 529 32,000  Level FlightAware
03:24AM 62.2660 68.3830 106° East 460 529 32,000  Level FlightAware
03:25AM 62.2800 68.2310 281° West 460 529 32,000  Level FlightAware
03:25AM 62.2540 68.5170 101° East 457 526 32,000  Level FlightAware
03:26AM 62.2700 68.3350 281° West 457 526 32,000  Level FlightAware
03:27AM 62.3670 67.2640 282° West 454 522 32,000  Level FlightAware
03:28AM 62.3830 67.0760 280° West 454 522 32,000  Level FlightAware
03:28AM 62.3990 66.8900 281° West 455 524 32,000  Level FlightAware
03:29AM 62.4020 66.8510 279° West 456 525 32,000  Level FlightAware
03:30AM 62.4140 66.6990 280° West 456 525 32,000  Level FlightAware
03:31AM 62.4270 66.5460 280° West 456 525 32,000  Level FlightAware
03:31AM 62.4390 66.3930 280° West 456 525 32,000  Level FlightAware
03:32AM 62.4520 66.2410 281° West 456 525 32,000  Level FlightAware
03:33AM 62.4670 66.0500 280° West 456 525 32,000  Level FlightAware
03:33AM 62.4790 65.8970 280° West 456 525 32,000  Level FlightAware
03:34AM 62.4920 65.7440 280° West 456 525 32,000  Level FlightAware
03:35AM 62.5040 65.5910 280° West 456 525 32,000  Level FlightAware
03:35AM 62.5170 65.4380 280° West 456 525 32,000  Level FlightAware
03:36AM 62.5320 65.2470 280° West 456 525 32,000  Level FlightAware
03:37AM 62.5450 65.0930 280° West 456 525 32,000  Level FlightAware
03:38AM 62.5570 64.9400 280° West 456 525 32,000  Level FlightAware
03:38AM 62.5700 64.7870 281° West 456 525 32,000 60 Level FlightAware
03:41AM 62.6025 64.2340 278° West  Level Estimated
03:42AM 62.6159 63.9933 277° West  Level Estimated
03:43AM 62.6289 63.7523 277° West  Level Estimated
03:44AM 62.6415 63.5111 277° West  Level Estimated
03:45AM 62.6537 63.2696 276° West  Level Estimated
03:46AM 62.6655 63.0280 276° West  Level Estimated
03:47AM 62.6769 62.7862 276° West  Level Estimated
03:48AM 62.6878 62.5443 276° West  Level Estimated
03:49AM 62.6984 62.3021 276° West  Level Estimated
03:50AM 62.7085 62.0598 275° West  Level Estimated
03:51AM 62.7182 61.8173 275° West  Level Estimated
03:52AM 62.7275 61.5747 275° West  Level Estimated
03:53AM 62.7363 61.3319 275° West  Level Estimated
03:54AM 62.7448 61.0890 274° West  Level Estimated
03:55AM 62.7528 60.8459 274° West  Level Estimated
03:56AM 62.7604 60.6027 274° West  Level Estimated
03:57AM 62.7676 60.3594 274° West  Level Estimated
03:58AM 62.7743 60.1159 274° West  Level Estimated
03:59AM 62.7807 59.8724 273° West  Level Estimated
04:00AM 62.7866 59.6287 273° West  Level Estimated
04:01AM 62.7921 59.3850 273° West  Level Estimated
04:02AM 62.7971 59.1412 273° West  Level Estimated
04:03AM 62.8018 58.8973 272° West  Level Estimated
04:04AM 62.8060 58.6533 272° West  Level Estimated
04:05AM 62.8098 58.4093 272° West  Level Estimated
04:06AM 62.8132 58.1652 272° West  Level Estimated
04:07AM 62.8162 57.9210 272° West  Level Estimated
04:08AM 62.8187 57.6768 271° West  Level Estimated
04:09AM 62.8208 57.4326 271° West  Level Estimated
04:10AM 62.8225 57.1883 271° West  Level Estimated
04:10AM 62.3540 55.5370 271° West 445 512 34,000  Level FlightAware
04:11AM 62.8238 56.9440 271° West  Level Estimated
04:11AM 62.3410 55.2560 264° West 444 511 34,000  Level FlightAware
04:12AM 62.3290 54.9990 264° West 446 513 34,000  Level FlightAware
04:12AM 62.3210 54.8500 263° West 446 513 34,000  Level FlightAware
04:13AM 62.3120 54.6600 264° West 445 512 34,000  Level FlightAware
04:14AM 62.3010 54.4620 263° West 445 512 34,000  Level FlightAware
04:15AM 62.2940 54.3250 264° West 444 511 34,000  Level FlightAware
04:15AM 62.2790 54.0580 263° West 442 509 34,000  Level FlightAware
04:16AM 62.2650 53.8180 263° West 441 507 34,000  Level FlightAware
04:17AM 62.2550 53.6370 263° West 440 506 34,000  Level FlightAware
04:18AM 62.2480 53.5320 262° West 440 506 34,000  Level FlightAware
04:18AM 62.2360 53.3340 263° West 438 504 34,000  Level FlightAware
04:19AM 62.2180 53.0420 263° West 434 499 34,000  Level FlightAware
04:20AM 62.2080 52.8910 262° West 433 498 34,000  Level FlightAware
04:21AM 62.1960 52.7100 262° West 434 499 34,000  Level FlightAware
04:21AM 62.1870 52.5660 262° West 435 501 34,000  Level FlightAware
04:22AM 62.1690 52.3130 261° West 438 504 34,000  Level FlightAware
04:23AM 62.1560 52.1500 260° West 438 504 34,000  Level FlightAware
04:24AM 62.1420 51.9630 261° West 439 505 34,000  Level FlightAware
04:24AM 62.1300 51.8040 261° West 438 504 34,000  Level FlightAware
04:25AM 62.1110 51.5730 260° West 438 504 34,000  Level FlightAware
04:26AM 62.1150 51.6170 79° East 436 502 34,000  Level FlightAware
04:27AM 62.1090 51.5530 259° West 435 501 34,000  Level FlightAware
04:27AM 62.1150 51.6180 79° East 434 499 34,000  Level FlightAware
04:28AM 62.1230 51.7150 80° East 428 493 34,000  Level FlightAware
04:29AM 62.1080 51.5520 259° West 428 493 34,000  Level FlightAware
04:29AM 62.1230 51.7150 79° East 34,000  Level FlightAware
04:30AM 62.0090 50.3580 260° West 423 487 34,000  Level FlightAware
04:31AM 62.0090 50.3580 260° West 422 486 34,000  Level FlightAware
04:31AM 61.9940 50.1990 259° West 422 486 34,000  Level FlightAware
04:32AM 61.9810 50.0600 259° West 422 486 34,000  Level FlightAware
04:33AM 61.9690 49.9210 260° West 422 486 34,000  Level FlightAware
04:33AM 61.9560 49.7830 259° West 422 486 34,000  Level FlightAware
04:34AM 61.9400 49.6090 259° West 422 486 34,000  Level FlightAware
04:35AM 61.9270 49.4710 259° West 422 486 34,000  Level FlightAware
04:36AM 61.9150 49.3330 260° West 422 486 34,000  Level FlightAware
04:36AM 61.9020 49.1940 259° West 422 486 34,000  Level FlightAware
04:37AM 61.8890 49.0560 259° West 422 486 34,000  Level FlightAware
04:38AM 61.8770 48.9180 260° West 422 486 34,000  Level FlightAware
04:38AM 61.8610 48.7450 259° West 422 486 34,000  Level FlightAware
04:39AM 61.8480 48.6070 259° West 422 486 34,000  Level FlightAware
04:40AM 61.8350 48.4690 259° West 422 486 34,000  Level FlightAware
04:40AM 61.8230 48.3310 260° West 422 486 34,000  Level FlightAware
04:43AM 61.7995 47.8493 264° West  Level Estimated
04:44AM 61.7874 47.6146 264° West  Level Estimated
04:45AM 61.7750 47.3801 264° West  Level Estimated
04:46AM 61.7621 47.1458 263° West  Level Estimated
04:47AM 61.7488 46.9117 263° West  Level Estimated
04:48AM 61.7352 46.6777 263° West  Level Estimated
04:49AM 61.7211 46.4440 263° West  Level Estimated
04:50AM 61.7066 46.2105 263° West  Level Estimated
04:51AM 61.6918 45.9773 262° West  Level Estimated
04:52AM 61.6765 45.7442 262° West  Level Estimated
04:53AM 61.6609 45.5114 262° West  Level Estimated
04:54AM 61.6448 45.2788 262° West  Level Estimated
04:55AM 61.6284 45.0465 262° West  Level Estimated
04:56AM 61.6115 44.8144 261° West  Level Estimated
04:57AM 61.5943 44.5826 261° West  Level Estimated
04:58AM 61.5767 44.3511 261° West  Level Estimated
04:59AM 61.5587 44.1198 261° West  Level Estimated
05:00AM 61.5403 43.8887 261° West  Level Estimated
05:01AM 61.5215 43.6580 260° West  Level Estimated
05:02AM 61.5023 43.4275 260° West  Level Estimated
05:03AM 61.4827 43.1973 260° West  Level Estimated
05:04AM 61.4628 42.9675 260° West  Level Estimated
05:05AM 61.4424 42.7379 260° West  Level Estimated
05:06AM 61.4217 42.5086 259° West  Level Estimated
05:06AM 61.1280 41.6520 259° West 441 507 34,000  Level FlightAware
05:06AM 61.1110 41.5280 254° West 441 507 34,000  Level FlightAware
05:07AM 61.0920 41.3900 254° West 441 507 34,000  Level FlightAware
05:08AM 61.0680 41.2180 254° West 441 507 34,000  Level FlightAware
05:09AM 61.0490 41.0800 254° West 441 507 34,000  Level FlightAware
05:09AM 61.0300 40.9420 254° West 441 507 34,000  Level FlightAware
05:10AM 61.0100 40.8040 253° West 441 507 34,000  Level FlightAware
05:11AM 60.9910 40.6670 254° West 441 507 34,000  Level FlightAware
05:11AM 60.9670 40.4950 254° West 441 507 34,000  Level FlightAware
05:12AM 60.9480 40.3580 254° West 441 507 34,000  Level FlightAware
05:13AM 60.9290 40.2200 254° West 441 507 34,000  Level FlightAware
05:13AM 60.9100 40.0830 254° West 441 507 34,000  Level FlightAware
05:14AM 60.8860 39.9120 254° West 441 507 34,000  Level FlightAware
05:15AM 60.8670 39.7750 254° West 441 507 34,000  Level FlightAware
05:16AM 60.8480 39.6380 254° West 441 507 34,000  Level FlightAware
05:18AM 60.7990 39.1992 257° West  Level Estimated
05:19AM 60.7735 38.9766 257° West  Level Estimated
05:20AM 60.7477 38.7544 257° West  Level Estimated
05:21AM 60.7215 38.5325 257° West  Level Estimated
05:22AM 60.6949 38.3110 256° West  Level Estimated
05:23AM 60.6680 38.0898 256° West  Level Estimated
05:24AM 60.6407 37.8690 256° West  Level Estimated
05:25AM 60.6130 37.6486 256° West  Level Estimated
05:26AM 60.5850 37.4286 256° West  Level Estimated
05:27AM 60.5566 37.2090 255° West  Level Estimated
05:28AM 60.5279 36.9897 255° West  Level Estimated
05:29AM 60.4988 36.7709 255° West  Level Estimated
05:30AM 60.4693 36.5524 255° West  Level Estimated
05:31AM 60.4395 36.3344 255° West  Level Estimated
05:32AM 60.4094 36.1167 254° West  Level Estimated
05:33AM 60.3788 35.8994 254° West  Level Estimated
05:34AM 60.3479 35.6826 254° West  Level Estimated
05:35AM 60.3167 35.4661 254° West  Level Estimated
05:36AM 60.2851 35.2501 254° West  Level Estimated
05:37AM 60.2532 35.0345 253° West  Level Estimated
05:38AM 60.2209 34.8194 253° West  Level Estimated
05:39AM 60.1883 34.6046 253° West  Level Estimated
05:40AM 60.1553 34.3903 253° West  Level Estimated
05:41AM 60.1220 34.1764 253° West  Level Estimated
05:42AM 60.0883 33.9629 253° West  Level Estimated
05:43AM 60.0543 33.7499 252° West  Level Estimated
05:44AM 60.0200 33.5373 252° West  Level Estimated
05:45AM 59.9853 33.3252 252° West  Level Estimated
05:46AM 59.9503 33.1135 252° West  Level Estimated
05:47AM 59.9149 32.9023 252° West  Level Estimated
05:47AM 59.7740 31.7390 251° West 450 518 34,000  Level FlightAware
05:48AM 59.8792 32.6915 251° West  Level Estimated
05:48AM 59.7610 31.5700 261° West 450 518 34,000  Level FlightAware
05:49AM 59.7510 31.4300 262° West 451 519 34,000  Level FlightAware
05:49AM 59.7350 31.2190 262° West 453 521 34,000  Level FlightAware
05:50AM 59.7220 31.0490 261° West 453 521 34,000  Level FlightAware
05:51AM 59.7080 30.8760 261° West 454 522 34,000  Level FlightAware
05:51AM 59.6960 30.7230 261° West 455 524 34,000  Level FlightAware
05:52AM 59.6800 30.5260 261° West 456 525 34,000  Level FlightAware
05:53AM 59.6610 30.3070 260° West 457 526 34,000  Level FlightAware
05:54AM 59.6430 30.0970 260° West 457 526 34,000  Level FlightAware
05:54AM 59.6360 30.0070 261° West 458 527 34,000  Level FlightAware
05:55AM 59.6180 29.7980 260° West 458 527 34,000  Level FlightAware
05:56AM 59.6030 29.6330 260° West 459 528 34,000  Level FlightAware
05:57AM 59.5890 29.4750 260° West 458 527 34,000  Level FlightAware
05:57AM 59.5700 29.2730 260° West 459 528 34,000  Level FlightAware
05:58AM 59.5540 29.0920 260° West 460 529 34,000  Level FlightAware
05:59AM 59.5370 28.9120 260° West 461 531 34,000  Level FlightAware
05:59AM 59.5210 28.7480 259° West 463 533 34,000  Level FlightAware
06:00AM 59.5050 28.5830 259° West 464 534 34,000  Level FlightAware
06:01AM 59.4880 28.4170 259° West 463 533 34,000  Level FlightAware
06:02AM 59.4660 28.1920 259° West 459 528 34,000  Level FlightAware
06:02AM 59.4410 28.0180 254° West 457 526 34,000  Level FlightAware
06:03AM 59.4090 27.8490 250° West 460 529 34,000  Level FlightAware
06:04AM 59.3770 27.6870 249° West 461 531 34,000  Level FlightAware
06:04AM 59.3500 27.5480 249° West 461 531 34,000  Level FlightAware
06:05AM 59.3040 27.3180 249° West 460 529 34,000  Level FlightAware
06:06AM 59.2710 27.1500 249° West 462 532 34,000  Level FlightAware
06:07AM 59.2430 27.0110 249° West 464 534 34,000  Level FlightAware
06:09AM 59.1574 26.6561 245° Southwest  Level Estimated
06:10AM 59.1095 26.4597 245° Southwest  Level Estimated
06:11AM 59.0612 26.2639 244° Southwest  Level Estimated
06:12AM 59.0127 26.0686 244° Southwest  Level Estimated
06:13AM 58.9638 25.8738 244° Southwest  Level Estimated
06:14AM 58.9147 25.6797 244° Southwest  Level Estimated
06:15AM 58.8653 25.4860 244° Southwest  Level Estimated
06:16AM 58.8156 25.2930 244° Southwest  Level Estimated
06:17AM 58.7656 25.1004 243° Southwest  Level Estimated
06:18AM 58.7153 24.9085 243° Southwest  Level Estimated
06:19AM 58.6647 24.7171 243° Southwest  Level Estimated
06:20AM 58.6139 24.5262 243° Southwest  Level Estimated
06:21AM 58.5627 24.3359 243° Southwest  Level Estimated
06:22AM 58.5113 24.1462 243° Southwest  Level Estimated
06:22AM 58.4790 23.5420 243° Southwest 449 517 34,000  Level FlightAware
06:24AM 58.3970 23.2010 245° Southwest 451 519 34,000  Level FlightAware
06:24AM 58.3570 23.0350 245° Southwest 450 518 34,000  Level FlightAware
06:25AM 58.3220 22.8920 245° Southwest 449 517 34,000  Level FlightAware
06:26AM 58.2870 22.7510 245° Southwest 448 516 34,000  Level FlightAware
06:27AM 58.2480 22.5930 245° Southwest 448 516 34,000  Level FlightAware
06:27AM 58.2130 22.4500 245° Southwest 448 516 34,000  Level FlightAware
06:28AM 58.1800 22.3060 247° West 449 517 34,000  Level FlightAware
06:29AM 58.1430 22.1430 247° West 450 518 34,000  Level FlightAware
06:29AM 58.1100 22.0010 246° West 453 521 34,000  Level FlightAware
06:30AM 58.0700 21.8330 246° West 454 522 34,000  Level FlightAware
06:31AM 58.0360 21.6880 246° West 454 522 34,000  Level FlightAware
06:31AM 57.9990 21.5330 246° West 452 520 34,000  Level FlightAware
06:32AM 57.9640 21.3870 246° West 452 520 34,000  Level FlightAware
06:33AM 57.9290 21.2440 245° Southwest 452 520 34,000  Level FlightAware
06:34AM 57.8900 21.0810 246° West 449 517 34,000  Level FlightAware
06:34AM 57.8550 20.9410 245° Southwest 451 519 34,000  Level FlightAware
06:35AM 57.8160 20.7830 245° Southwest 450 518 34,000  Level FlightAware
06:36AM 57.7810 20.6430 245° Southwest 452 520 34,000  Level FlightAware
06:36AM 57.7460 20.5020 245° Southwest 452 520 34,000  Level FlightAware
06:37AM 57.7050 20.3380 245° Southwest 452 520 34,000  Level FlightAware
06:38AM 57.6700 20.1980 245° Southwest 450 518 34,000 660 Level FlightAware
06:38AM 57.6260 20.0470 241° Southwest 447 514 35,000 1,320 Climbing FlightAware
06:39AM 57.5860 19.9130 241° Southwest 446 513 35,900 660 Climbing FlightAware
06:40AM 57.5410 19.7650 241° Southwest 453 521 36,000 60 Climbing FlightAware
06:41AM 57.5000 19.6310 240° Southwest 455 524 36,000  Level FlightAware
06:41AM 57.4570 19.4940 240° Southwest 454 522 36,000  Level FlightAware
06:42AM 57.4090 19.3370 240° Southwest 452 520 36,000  Level FlightAware
06:43AM 57.3670 19.2030 240° Southwest 451 519 36,000  Level FlightAware
06:43AM 57.3250 19.0710 240° Southwest 450 518 36,000  Level FlightAware
06:44AM 57.2790 18.9260 240° Southwest 450 518 36,000  Level FlightAware
06:45AM 57.2370 18.7940 240° Southwest 454 522 36,000  Level FlightAware
06:45AM 57.1940 18.6580 240° Southwest 456 525 36,000  Level FlightAware
06:46AM 57.1450 18.5070 239° Southwest 458 527 36,000  Level FlightAware
06:47AM 57.1020 18.3750 239° Southwest 460 529 36,000  Level FlightAware
06:48AM 57.0530 18.2230 239° Southwest 460 529 36,000  Level FlightAware
06:48AM 57.0100 18.0910 239° Southwest 461 531 36,000  Level FlightAware
06:49AM 56.9660 17.9590 239° Southwest 460 529 36,000  Level FlightAware
06:50AM 56.9160 17.8060 239° Southwest 460 529 36,000  Level FlightAware
06:50AM 56.8710 17.6730 238° Southwest 460 529 36,000  Level FlightAware
06:51AM 56.8220 17.5280 238° Southwest 460 529 36,000  Level FlightAware
06:52AM 56.7780 17.3950 239° Southwest 462 532 36,000  Level FlightAware
06:52AM 56.7270 17.2440 238° Southwest 464 534 36,000  Level FlightAware
06:53AM 56.6810 17.1110 238° Southwest 465 535 36,000  Level FlightAware
06:54AM 56.6370 16.9840 238° Southwest 465 535 36,000  Level FlightAware
06:55AM 56.5840 16.8290 238° Southwest 463 533 36,000  Level FlightAware
06:55AM 56.5390 16.7000 238° Southwest 463 533 36,000  Level FlightAware
06:56AM 56.4930 16.5690 238° Southwest 463 533 36,000  Level FlightAware
06:57AM 56.4420 16.4230 238° Southwest 462 532 36,000  Level FlightAware
06:57AM 56.3970 16.2950 238° Southwest 463 533 36,000  Level FlightAware
06:58AM 56.3440 16.1460 237° Southwest 464 534 36,000  Level FlightAware
06:59AM 56.2980 16.0170 237° Southwest 462 532 36,000  Level FlightAware
06:59AM 56.2520 15.8890 237° Southwest 462 532 36,000  Level FlightAware
07:00AM 56.2020 15.7500 237° Southwest 464 534 36,000  Level FlightAware
07:01AM 56.1590 15.6330 237° Southwest 468 539 36,000  Level FlightAware
07:02AM 56.1000 15.4720 237° Southwest 471 542 36,000  Level FlightAware
07:02AM 56.0510 15.3380 237° Southwest 470 541 36,000  Level FlightAware
07:03AM 56.0030 15.2080 237° Southwest 469 540 36,000  Level FlightAware
07:04AM 55.9520 15.0700 237° Southwest 465 535 36,000  Level FlightAware
07:04AM 55.9040 14.9410 236° Southwest 467 537 36,000  Level FlightAware
07:05AM 55.8480 14.7930 236° Southwest 468 539 36,000  Level FlightAware
07:06AM 55.8020 14.6720 236° Southwest 469 540 36,000  Level FlightAware
07:06AM 55.7520 14.5380 236° Southwest 470 541 36,000  Level FlightAware
07:07AM 55.6980 14.3980 236° Southwest 469 540 36,000  Level FlightAware
07:08AM 55.6420 14.2520 236° Southwest 466 536 36,000  Level FlightAware
07:09AM 55.5950 14.1300 236° Southwest 462 532 36,000  Level FlightAware
07:09AM 55.5430 14.0080 233° Southwest 460 529 36,000  Level FlightAware
07:10AM 55.4840 13.8800 231° Southwest 462 532 36,000  Level FlightAware
07:11AM 55.4310 13.7610 232° Southwest 464 534 36,000  Level FlightAware
07:11AM 55.3780 13.6420 232° Southwest 465 535 36,000  Level FlightAware
07:12AM 55.3160 13.5060 231° Southwest 466 536 36,000  Level FlightAware
07:13AM 55.2620 13.3900 231° Southwest 467 537 36,000  Level FlightAware
07:13AM 55.2070 13.2720 231° Southwest 469 540 36,000  Level FlightAware
07:14AM 55.1470 13.1430 231° Southwest 468 539 36,000  Level FlightAware
07:15AM 55.0930 13.0270 231° Southwest 467 537 36,000  Level FlightAware
07:15AM 55.0370 12.9090 230° Southwest 468 539 36,000  Level FlightAware
07:16AM 54.9740 12.7750 231° Southwest 468 539 36,000  Level FlightAware
07:17AM 54.9200 12.6620 230° Southwest 467 537 36,000  Level FlightAware
07:18AM 54.8600 12.5360 230° Southwest 466 536 36,000  Level FlightAware
07:18AM 54.7950 12.4020 230° Southwest 467 537 36,000  Level FlightAware
07:19AM 54.7410 12.2900 230° Southwest 467 537 36,000  Level FlightAware
07:20AM 54.6850 12.1750 230° Southwest 467 537 36,000  Level FlightAware
07:20AM 54.6240 12.0500 230° Southwest 466 536 36,000  Level FlightAware
07:21AM 54.5680 11.9360 230° Southwest 465 535 36,000  Level FlightAware
07:22AM 54.5040 11.8060 230° Southwest 466 536 36,000  Level FlightAware
07:23AM 54.4440 11.7020 225° Southwest 465 535 36,000  Level FlightAware
07:23AM 54.3810 11.6010 223° Southwest 466 536 36,000  Level FlightAware
07:24AM 54.3120 11.4940 222° Southwest 465 535 36,000  Level FlightAware
07:25AM 54.2460 11.3940 222° Southwest 465 535 36,000  Level FlightAware
07:25AM 54.1840 11.2980 222° Southwest 466 536 36,000  Level FlightAware
07:26AM 54.1110 11.1870 222° Southwest 467 537 36,000  Level FlightAware
07:27AM 54.0370 11.0740 222° Southwest 469 540 36,000  Level FlightAware
07:27AM 53.9720 10.9750 222° Southwest 471 542 36,000  Level FlightAware
07:28AM 53.9090 10.8810 221° Southwest 473 544 36,000  Level FlightAware
07:29AM 53.8360 10.7710 222° Southwest 473 544 36,000  Level FlightAware
07:30AM 53.7700 10.6730 221° Southwest 474 545 36,000  Level FlightAware
07:30AM 53.6940 10.5600 221° Southwest 473 544 36,000  Level FlightAware
07:31AM 53.6290 10.4640 221° Southwest 472 543 36,000  Level FlightAware
07:32AM 53.5630 10.3680 221° Southwest 472 543 36,000  Level FlightAware
07:32AM 53.4880 10.2570 221° Southwest 469 540 36,000  Level FlightAware
07:33AM 53.4260 10.1680 221° Southwest 469 540 36,000  Level FlightAware
07:34AM 53.3500 10.0580 221° Southwest 468 539 36,000  Level FlightAware
07:34AM 53.2850 9.9630 221° Southwest 468 539 36,000  Level FlightAware
07:35AM 53.2190 9.8680 221° Southwest 467 537 36,000  Level FlightAware
07:36AM 53.1470 9.7670 220° Southwest 468 539 36,000  Level FlightAware
07:37AM 53.0810 9.6760 220° Southwest 469 540 36,000  Level FlightAware
07:37AM 53.0070 9.5750 219° Southwest 469 540 36,000  Level FlightAware
07:38AM 52.9440 9.4820 222° Southwest 469 540 36,000  Level FlightAware
07:39AM 52.8760 9.3770 223° Southwest 467 537 36,000  Level FlightAware
07:39AM 52.8050 9.2700 222° Southwest 468 539 36,000  Level FlightAware
07:40AM 52.7410 9.1740 222° Southwest 467 537 36,000  Level FlightAware
07:41AM 52.6670 9.0710 220° Southwest 469 540 36,000  Level FlightAware
07:41AM 52.6060 8.9900 219° Southwest 467 537 36,000  Level FlightAware
07:42AM 52.5330 8.8890 220° Southwest 465 535 36,000  Level FlightAware
07:43AM 52.4600 8.7900 220° Southwest 461 531 36,000  Level FlightAware
07:44AM 52.3930 8.7000 219° Southwest 460 529 36,000  Level FlightAware
07:44AM 52.3180 8.5980 220° Southwest 461 531 36,000  Level FlightAware
07:45AM 52.2520 8.5100 219° Southwest 460 529 36,000  Level FlightAware
07:46AM 52.1910 8.4280 220° Southwest 459 528 36,000  Level FlightAware
07:46AM 52.1140 8.3260 219° Southwest 455 524 36,000  Level FlightAware
07:47AM 52.0500 8.2400 220° Southwest 453 521 36,000  Level FlightAware
07:48AM 51.9840 8.1530 219° Southwest 451 519 36,000  Level FlightAware
07:48AM 51.9130 8.0590 219° Southwest 450 518 36,000  Level FlightAware
07:49AM 51.8650 7.9970 219° Southwest 449 517 36,000  Level FlightAware
07:50AM 51.7850 7.8920 219° Southwest 448 516 36,000  Level FlightAware
07:51AM 51.7140 7.8000 219° Southwest 448 516 36,000  Level FlightAware
07:51AM 51.6500 7.7170 219° Southwest 447 514 36,000  Level FlightAware
07:52AM 51.5740 7.6180 219° Southwest 448 516 36,000  Level FlightAware
07:53AM 51.5100 7.5360 219° Southwest 446 513 36,000  Level FlightAware
07:53AM 51.4400 7.4470 218° Southwest 446 513 36,000  Level FlightAware
07:54AM 51.3750 7.3640 219° Southwest 446 513 36,000  Level FlightAware
07:55AM 51.3010 7.2710 218° Southwest 446 513 36,000  Level FlightAware
07:55AM 51.2350 7.1870 219° Southwest 445 512 36,000  Level FlightAware
07:56AM 51.1740 7.1090 219° Southwest 446 513 36,000  Level FlightAware
07:57AM 51.1010 7.0180 218° Southwest 448 516 36,000  Level FlightAware
07:58AM 51.0350 6.9360 218° Southwest 448 516 36,000  Level FlightAware
07:58AM 50.9480 6.8290 218° Southwest 450 518 36,000  Level FlightAware
07:59AM 50.8730 6.7360 218° Southwest 449 517 36,000  Level FlightAware
08:00AM 50.8110 6.6600 218° Southwest 449 517 36,000  Level FlightAware
08:01AM 50.7500 6.5850 218° Southwest 447 514 36,000  Level FlightAware
08:01AM 50.6640 6.4810 217° Southwest 446 513 36,000  Level FlightAware
08:02AM 50.6000 6.4030 218° Southwest 445 512 36,000  Level FlightAware
08:03AM 50.5300 6.3180 218° Southwest 446 513 36,000  Level FlightAware
08:03AM 50.4620 6.2360 218° Southwest 447 514 36,000  Level FlightAware
08:04AM 50.3870 6.1460 217° Southwest 448 516 36,000  Level FlightAware
08:05AM 50.3200 6.0660 217° Southwest 450 518 36,000  Level FlightAware
08:05AM 50.2570 5.9910 217° Southwest 451 519 36,000  Level FlightAware
08:06AM 50.1820 5.9020 217° Southwest 449 517 36,000  Level FlightAware
08:07AM 50.1170 5.8250 217° Southwest 451 519 36,000 -600 Level FlightAware
08:08AM 50.0390 5.7330 217° Southwest 453 521 35,200 -1,380 Descending FlightAware
08:08AM 49.9720 5.6540 217° Southwest 461 531 34,100 -900 Descending FlightAware
08:09AM 49.9060 5.5780 217° Southwest 466 536 34,000 -900 Descending FlightAware
08:10AM 49.8270 5.4860 217° Southwest 467 537 32,900 -1,680 Descending FlightAware
08:10AM 49.7580 5.4060 217° Southwest 470 541 31,700 -1,440 Descending FlightAware
08:11AM 49.6930 5.3230 220° Southwest 463 533 31,000 -780 Descending FlightAware
08:11AM 49.6770 5.2800 240° Southwest 457 526 31,000  Level FlightAware
08:12AM 49.6710 5.2320 259° West 453 521 31,000 -1,020 Level FlightAware
08:12AM 49.6650 5.0850 266° West 439 505 30,000 -1,860 Descending FlightAware
08:13AM 49.6520 4.9610 261° West 430 495 28,400 -2,400 Descending FlightAware
08:14AM 49.6360 4.8440 258° West 422 486 26,800 -2,220 Descending FlightAware
08:14AM 49.6180 4.7280 257° West 411 473 25,300 -2,160 Descending FlightAware
08:15AM 49.6000 4.6040 257° West 398 458 23,800 -2,400 Descending FlightAware
08:15AM 49.5966 4.5814 257° West 397 457 23,500 -2,160 Descending FlightAware ADS-B
08:16AM 49.5832 4.4917 257° West 390 449 22,400 -2,040 Descending FlightAware ADS-B
08:16AM 49.5675 4.3879 257° West 382 440 21,100 -2,040 Descending FlightAware ADS-B
08:17AM 49.5501 4.2732 257° West 370 426 19,600 -2,100 Descending FlightAware ADS-B
08:18AM 49.5378 4.1928 257° West 365 420 18,500 -2,100 Descending FlightAware ADS-B
08:18AM 49.5242 4.1048 257° West 360 414 17,300 -2,040 Descending FlightAware ADS-B
08:19AM 49.5118 4.0254 256° West 355 409 16,200 -1,620 Descending FlightAware ADS-B
08:19AM 49.4997 3.9483 256° West 339 390 15,600 -840 Descending FlightAware ADS-B
08:20AM 49.4860 3.8610 256° West 311 358 15,200 -660 Descending FlightAware
08:20AM 49.4837 3.8445 258° West 311 358 15,100 -780 Descending FlightAware ADS-B
08:21AM 49.4729 3.7752 257° West 290 334 14,700 -660 Descending FlightAware ADS-B
08:21AM 49.4632 3.7140 256° West 272 313 14,400 -600 Descending FlightAware ADS-B
08:22AM 49.4544 3.6579 256° West 252 290 14,100 -600 Descending FlightAware ADS-B
08:22AM 49.4490 3.6258 255° West 245 282 13,900 -840 Descending FlightAware ADS-B
08:22AM 49.4437 3.6096 243° Southwest 249 287 13,700 -1,380 Descending FlightAware ADS-B
08:22AM 49.4342 3.5961 223° Southwest 253 291 13,400 -1,620 Descending FlightAware ADS-B
08:22AM 49.4257 3.5901 205° Southwest 263 303 13,200 -1,440 Descending FlightAware ADS-B
08:23AM 49.4144 3.5875 189° South 272 313 13,000 -1,200 Descending FlightAware ADS-B
08:23AM 49.3944 3.5903 175° South 275 316 12,700 -1,200 Descending FlightAware ADS-B
08:23AM 49.3566 3.5984 172° South 271 312 12,100 -1,200 Descending FlightAware ADS-B
08:24AM 49.3173 3.6067 172° South 271 312 11,500 -1,260 Descending FlightAware ADS-B
08:24AM 49.2775 3.6152 172° South 269 310 10,800 -1,200 Descending FlightAware ADS-B
08:25AM 49.2364 3.6237 172° South 266 306 10,200 -1,200 Descending FlightAware ADS-B
08:26AM 49.1901 3.6286 176° South 261 300 9,400 -1,320 Descending FlightAware ADS-B
08:26AM 49.1699 3.6065 216° Southwest 236 272 8,900 -1,080 Descending FlightAware ADS-B
08:27AM 49.1459 3.5506 237° Southwest 225 259 8,300 -1,260 Descending FlightAware ADS-B
08:28AM 49.1181 3.4856 237° Southwest 219 252 7,000 -1,620 Descending FlightAware ADS-B
08:28AM 49.1062 3.4590 236° Southwest 219 252 6,400 -1,920 Descending FlightAware ADS-B
08:28AM 49.0983 3.4407 237° Southwest 224 258 5,900 -2,160 Descending FlightAware ADS-B
08:28AM 49.0920 3.4258 237° Southwest 227 261 5,500 -1,800 Descending FlightAware ADS-B
08:29AM 49.0833 3.4045 238° Southwest 228 262 5,100 -1,560 Descending FlightAware ADS-B
08:29AM 49.0749 3.3836 238° Southwest 225 259 4,700 -1,560 Descending FlightAware ADS-B
08:29AM 49.0686 3.3682 238° Southwest 223 257 4,400 -1,080 Descending FlightAware ADS-B
08:29AM 49.0595 3.3454 239° Southwest 221 254 4,200 -960 Descending FlightAware ADS-B
08:30AM 49.0514 3.3249 239° Southwest 218 251 3,900 -660 Descending FlightAware ADS-B
08:30AM 49.0445 3.3077 238° Southwest 219 252 3,900  Level FlightAware ADS-B
08:30AM 49.0368 3.2893 237° Southwest 217 250 3,900  Level FlightAware ADS-B
08:30AM 49.0335 3.2810 239° Southwest 216 249 3,900  Level FlightAware ADS-B
08:30AM 49.0312 3.2742 243° Southwest 216 249 3,900  Level FlightAware ADS-B
08:30AM 49.0294 3.2664 251° West 217 250 3,900  Level FlightAware ADS-B
08:30AM 49.0281 3.2584 256° West 216 249 3,900  Level FlightAware ADS-B
08:30AM 49.0274 3.2520 261° West 217 250 3,900  Level FlightAware ADS-B
08:31AM 49.0263 3.2366 264° West 218 251 3,900  Level FlightAware ADS-B
08:31AM 49.0253 3.2130 266° West 219 252 3,900  Level FlightAware ADS-B
08:31AM 49.0242 3.1860 266° West 217 250 3,900  Level FlightAware ADS-B
08:31AM 49.0231 3.1623 266° West 216 249 3,900  Level FlightAware ADS-B
08:32AM 49.0221 3.1375 266° West 216 249 3,900  Level FlightAware ADS-B
08:32AM 49.0210 3.1145 266° West 203 234 3,900  Level FlightAware ADS-B
08:32AM 49.0198 3.0902 266° West 184 212 3,900  Level FlightAware ADS-B
08:33AM 49.0188 3.0710 265° West 174 200 3,900  Level FlightAware ADS-B
08:33AM 49.0180 3.0543 266° West 176 203 3,900  Level FlightAware ADS-B
08:33AM 49.0170 3.0346 266° West 179 206 3,900  Level FlightAware ADS-B
08:33AM 49.0160 3.0152 266° West 176 203 3,900  Level FlightAware ADS-B
08:34AM 49.0148 2.9893 266° West 175 201 3,900  Level FlightAware ADS-B
08:34AM 49.0137 2.9691 265° West 174 200 3,900  Level FlightAware ADS-B
08:34AM 49.0128 2.9495 266° West 175 201 3,900  Level FlightAware ADS-B
08:34AM 49.0118 2.9292 266° West 176 203 3,900  Level FlightAware ADS-B
08:35AM 49.0108 2.9095 266° West 177 204 3,900  Level FlightAware ADS-B
08:35AM 49.0098 2.8905 265° West 175 201 3,900  Level FlightAware ADS-B
08:35AM 49.0094 2.8814 266° West 179 206 3,900 -840 Level FlightAware ADS-B
08:35AM 49.0084 2.8619 266° West 183 211 3,600 -1,140 Descending FlightAware ADS-B
08:36AM 49.0073 2.8409 265° West 182 209 3,300 -960 Descending FlightAware ADS-B
08:36AM 49.0062 2.8199 265° West 182 209 3,100 -960 Descending FlightAware ADS-B
08:36AM 49.0053 2.8005 266° West 180 207 2,800 -1,020 Descending FlightAware ADS-B
08:37AM 49.0039 2.7743 265° West 179 206 2,500 -1,020 Descending FlightAware ADS-B
08:37AM 49.0029 2.7543 266° West 167 192 2,200 -1,140 Descending FlightAware ADS-B
08:37AM 49.0019 2.7351 265° West 156 180 1,900 -840 Descending FlightAware ADS-B
08:37AM 49.0009 2.7159 265° West 141 162 1,700 -780 Descending FlightAware ADS-B
08:38AM 48.9993 2.6864 265° West 138 159 1,300 -840 Descending FlightAware ADS-B
08:38AM 48.9986 2.6717 266° West 137 158 1,100 -720 Descending FlightAware ADS-B
08:38AM 48.9981 2.6624 265° West 136 157 1,000 -600 Descending FlightAware ADS-B
08:38AM 48.9976 2.6533 265° West 135 155 900 -600 Descending FlightAware ADS-B
08:39AM 48.9971 2.6441 265° West 135 155 800 -720 Descending FlightAware ADS-B
08:39AM 48.9963 2.6297 265° West 137 158 600 -840 Descending FlightAware ADS-B
08:39AM 48.9956 2.6165 265° West 139 160 400 -900 Descending FlightAware ADS-B
08:52AM 49.0128 2.5500 283° West  Level Estimated
08:53AM 49.0128 2.5500 180° South  Level Estimated
08:54AM 49.0128 2.5500 180° South  Level Estimated
08:55AM 49.0128 2.5500 180° South  Level Estimated
08:56AM 49.0128 2.5500 180° South  Level Estimated
08:57AM 49.0128 2.5500 180° South  Level Estimated